Terminal Aerodrome Forecast
Issued by NWS

Home | Current Version | Previous Version | Text Only | Print | Product List | Glossary On
Versions: 1 2 3 4 5 6 7 8 9 10 11 12 13 14 15 16 17 18 19 20 21 22 23 24 25 26
000
FTUS45 KGJT 240520
TAFMTJ
TAF
KMTJ 240520Z 2406/2506 12007KT P6SM VCSH SCT100 BKN180
     FM241000 15007KT P6SM VCSH BKN100
     FM241800 34008KT P6SM VCTS SCT100CB BKN130
     FM250100 15009KT P6SM VCTS BKN100CB BKN150=

USA.gov is the U.S. government's official web portal to all federal, state and local government web resources and services.